sensor_id;sensor_type;location;lat;lon;timestamp;P1;durP1;ratioP1;P2;durP2;ratioP2
73684;SDS011;61985;51.070;14.064;2023-02-24T00:01:34;57.50;;;25.00;;
73684;SDS011;61985;51.070;14.064;2023-02-24T00:04:05;59.70;;;24.95;;
73684;SDS011;61985;51.070;14.064;2023-02-24T00:06:32;49.65;;;21.42;;
73684;SDS011;61985;51.070;14.064;2023-02-24T00:11:35;53.90;;;23.65;;
73684;SDS011;61985;51.070;14.064;2023-02-24T00:14:09;57.03;;;24.42;;
73684;SDS011;61985;51.070;14.064;2023-02-24T00:16:37;55.92;;;24.73;;
73684;SDS011;61985;51.070;14.064;2023-02-24T00:19:03;57.40;;;24.40;;
73684;SDS011;61985;51.070;14.064;2023-02-24T00:21:31;63.72;;;26.85;;
73684;SDS011;61985;51.070;14.064;2023-02-24T00:23:57;57.85;;;25.90;;
73684;SDS011;61985;51.070;14.064;2023-02-24T00:26:26;57.63;;;24.63;;
73684;SDS011;61985;51.070;14.064;2023-02-24T00:28:53;55.22;;;25.05;;
73684;SDS011;61985;51.070;14.064;2023-02-24T00:31:24;54.22;;;23.90;;
73684;SDS011;61985;51.070;14.064;2023-02-24T00:34:12;61.30;;;25.23;;
73684;SDS011;61985;51.070;14.064;2023-02-24T00:36:39;52.60;;;22.55;;
73684;SDS011;61985;51.070;14.064;2023-02-24T00:39:05;54.78;;;23.02;;
73684;SDS011;61985;51.070;14.064;2023-02-24T00:41:39;57.53;;;24.35;;
73684;SDS011;61985;51.070;14.064;2023-02-24T00:44:07;56.00;;;23.73;;
73684;SDS011;61985;51.070;14.064;2023-02-24T00:46:38;60.60;;;24.92;;
73684;SDS011;61985;51.070;14.064;2023-02-24T00:49:10;55.45;;;23.85;;
73684;SDS011;61985;51.070;14.064;2023-02-24T00:51:41;56.22;;;24.25;;
73684;SDS011;61985;51.070;14.064;2023-02-24T00:54:09;49.58;;;22.58;;
73684;SDS011;61985;51.070;14.064;2023-02-24T00:56:39;59.20;;;25.30;;
73684;SDS011;61985;51.070;14.064;2023-02-24T00:59:05;53.33;;;24.20;;
73684;SDS011;61985;51.070;14.064;2023-02-24T01:01:31;49.20;;;21.75;;
73684;SDS011;61985;51.070;14.064;2023-02-24T01:03:57;44.75;;;20.30;;
73684;SDS011;61985;51.070;14.064;2023-02-24T01:06:26;45.75;;;20.00;;
73684;SDS011;61985;51.070;14.064;2023-02-24T01:08:53;48.92;;;21.63;;
73684;SDS011;61985;51.070;14.064;2023-02-24T01:11:24;52.80;;;21.75;;
73684;SDS011;61985;51.070;14.064;2023-02-24T01:14:11;44.13;;;19.88;;
73684;SDS011;61985;51.070;14.064;2023-02-24T01:16:41;46.80;;;20.77;;
73684;SDS011;61985;51.070;14.064;2023-02-24T01:19:08;46.97;;;20.58;;
73684;SDS011;61985;51.070;14.064;2023-02-24T01:21:35;43.10;;;21.40;;
73684;SDS011;61985;51.070;14.064;2023-02-24T01:24:00;39.30;;;18.80;;
73684;SDS011;61985;51.070;14.064;2023-02-24T01:26:26;40.40;;;18.95;;
73684;SDS011;61985;51.070;14.064;2023-02-24T01:28:53;41.97;;;19.38;;
73684;SDS011;61985;51.070;14.064;2023-02-24T01:31:19;38.50;;;17.50;;
73684;SDS011;61985;51.070;14.064;2023-02-24T01:33:45;43.55;;;18.80;;
73684;SDS011;61985;51.070;14.064;2023-02-24T01:36:13;44.00;;;19.10;;
73684;SDS011;61985;51.070;14.064;2023-02-24T01:38:44;42.47;;;18.98;;
73684;SDS011;61985;51.070;14.064;2023-02-24T01:41:11;46.00;;;19.05;;
73684;SDS011;61985;51.070;14.064;2023-02-24T01:46:26;38.58;;;17.95;;
73684;SDS011;61985;51.070;14.064;2023-02-24T01:48:57;39.33;;;19.00;;
73684;SDS011;61985;51.070;14.064;2023-02-24T01:51:28;39.92;;;18.80;;
73684;SDS011;61985;51.070;14.064;2023-02-24T01:53:58;40.47;;;19.23;;
73684;SDS011;61985;51.070;14.064;2023-02-24T01:56:24;37.60;;;16.85;;
73684;SDS011;61985;51.070;14.064;2023-02-24T01:58:53;37.60;;;17.27;;
73684;SDS011;61985;51.070;14.064;2023-02-24T02:01:19;44.83;;;18.30;;
73684;SDS011;61985;51.070;14.064;2023-02-24T02:03:45;37.95;;;18.20;;
73684;SDS011;61985;51.070;14.064;2023-02-24T02:06:12;38.20;;;17.08;;
73684;SDS011;61985;51.070;14.064;2023-02-24T02:08:39;38.85;;;17.48;;
73684;SDS011;61985;51.070;14.064;2023-02-24T02:11:11;44.35;;;19.05;;
73684;SDS011;61985;51.070;14.064;2023-02-24T02:13:42;33.70;;;16.45;;
73684;SDS011;61985;51.070;14.064;2023-02-24T02:35:40;26.92;;;12.15;;
73684;SDS011;61985;51.070;14.064;2023-02-24T02:38:13;22.33;;;11.00;;
73684;SDS011;61985;51.070;14.064;2023-02-24T02:40:43;22.05;;;10.70;;
73684;SDS011;61985;51.070;14.064;2023-02-24T02:43:36;20.80;;;10.00;;
73684;SDS011;61985;51.070;14.064;2023-02-24T02:46:16;23.83;;;10.48;;
73684;SDS011;61985;51.070;14.064;2023-02-24T02:49:00;22.83;;;11.52;;
73684;SDS011;61985;51.070;14.064;2023-02-24T02:51:35;24.83;;;10.95;;
73684;SDS011;61985;51.070;14.064;2023-02-24T02:54:14;22.50;;;10.80;;
73684;SDS011;61985;51.070;14.064;2023-02-24T02:57:03;26.05;;;12.63;;
73684;SDS011;61985;51.070;14.064;2023-02-24T02:59:47;26.63;;;13.02;;
73684;SDS011;61985;51.070;14.064;2023-02-24T03:02:17;28.27;;;13.50;;
73684;SDS011;61985;51.070;14.064;2023-02-24T03:04:51;28.83;;;14.40;;
73684;SDS011;61985;51.070;14.064;2023-02-24T03:07:21;28.92;;;13.27;;
73684;SDS011;61985;51.070;14.064;2023-02-24T03:09:55;31.10;;;13.57;;
73684;SDS011;61985;51.070;14.064;2023-02-24T03:12:23;28.65;;;12.98;;
73684;SDS011;61985;51.070;14.064;2023-02-24T03:14:52;32.63;;;15.13;;
73684;SDS011;61985;51.070;14.064;2023-02-24T03:17:24;32.10;;;13.40;;
73684;SDS011;61985;51.070;14.064;2023-02-24T03:19:54;33.42;;;13.88;;
73684;SDS011;61985;51.070;14.064;2023-02-24T03:22:42;32.22;;;14.00;;
73684;SDS011;61985;51.070;14.064;2023-02-24T03:25:13;33.08;;;14.73;;
73684;SDS011;61985;51.070;14.064;2023-02-24T03:28:02;28.58;;;13.27;;
73684;SDS011;61985;51.070;14.064;2023-02-24T03:30:47;30.58;;;12.45;;
73684;SDS011;61985;51.070;14.064;2023-02-24T03:33:23;28.30;;;11.88;;
73684;SDS011;61985;51.070;14.064;2023-02-24T03:35:53;29.67;;;12.60;;
73684;SDS011;61985;51.070;14.064;2023-02-24T03:38:25;32.13;;;11.82;;
73684;SDS011;61985;51.070;14.064;2023-02-24T03:40:52;23.35;;;10.82;;
73684;SDS011;61985;51.070;14.064;2023-02-24T03:45:52;21.67;;;10.00;;
73684;SDS011;61985;51.070;14.064;2023-02-24T03:48:18;19.55;;;8.88;;
73684;SDS011;61985;51.070;14.064;2023-02-24T03:50:44;18.75;;;8.38;;
73684;SDS011;61985;51.070;14.064;2023-02-24T04:01:09;16.37;;;7.43;;
73684;SDS011;61985;51.070;14.064;2023-02-24T04:03:48;23.38;;;8.13;;
73684;SDS011;61985;51.070;14.064;2023-02-24T04:09:01;17.15;;;6.88;;
73684;SDS011;61985;51.070;14.064;2023-02-24T04:11:40;20.85;;;8.77;;
73684;SDS011;61985;51.070;14.064;2023-02-24T04:14:12;19.23;;;7.80;;
73684;SDS011;61985;51.070;14.064;2023-02-24T04:17:14;20.83;;;8.82;;
73684;SDS011;61985;51.070;14.064;2023-02-24T04:19:45;21.02;;;7.40;;
73684;SDS011;61985;51.070;14.064;2023-02-24T04:22:14;18.95;;;8.20;;
73684;SDS011;61985;51.070;14.064;2023-02-24T04:24:44;23.15;;;7.88;;
73684;SDS011;61985;51.070;14.064;2023-02-24T04:27:12;21.67;;;8.00;;
73684;SDS011;61985;51.070;14.064;2023-02-24T04:29:41;18.35;;;7.63;;
73684;SDS011;61985;51.070;14.064;2023-02-24T04:32:11;17.98;;;7.78;;
73684;SDS011;61985;51.070;14.064;2023-02-24T04:34:38;19.60;;;7.50;;
73684;SDS011;61985;51.070;14.064;2023-02-24T04:37:04;18.73;;;8.55;;
73684;SDS011;61985;51.070;14.064;2023-02-24T04:39:30;19.60;;;8.00;;
73684;SDS011;61985;51.070;14.064;2023-02-24T04:41:56;19.73;;;7.57;;
73684;SDS011;61985;51.070;14.064;2023-02-24T04:44:22;17.42;;;6.95;;
73684;SDS011;61985;51.070;14.064;2023-02-24T04:46:49;20.30;;;7.18;;
73684;SDS011;61985;51.070;14.064;2023-02-24T04:49:15;21.65;;;7.40;;
73684;SDS011;61985;51.070;14.064;2023-02-24T04:51:42;20.02;;;7.00;;
73684;SDS011;61985;51.070;14.064;2023-02-24T04:54:09;20.20;;;7.07;;
73684;SDS011;61985;51.070;14.064;2023-02-24T04:56:35;17.02;;;6.78;;
73684;SDS011;61985;51.070;14.064;2023-02-24T04:59:01;17.30;;;6.88;;
73684;SDS011;61985;51.070;14.064;2023-02-24T05:01:27;18.50;;;7.93;;
73684;SDS011;61985;51.070;14.064;2023-02-24T05:03:53;27.27;;;8.25;;
73684;SDS011;61985;51.070;14.064;2023-02-24T05:06:18;19.73;;;7.97;;
73684;SDS011;61985;51.070;14.064;2023-02-24T05:08:44;20.60;;;8.45;;
73684;SDS011;61985;51.070;14.064;2023-02-24T05:11:13;19.77;;;8.65;;
73684;SDS011;61985;51.070;14.064;2023-02-24T05:13:43;23.80;;;8.18;;
73684;SDS011;61985;51.070;14.064;2023-02-24T05:16:13;24.85;;;8.38;;
73684;SDS011;61985;51.070;14.064;2023-02-24T05:18:41;23.95;;;9.00;;
73684;SDS011;61985;51.070;14.064;2023-02-24T05:21:08;22.45;;;8.45;;
73684;SDS011;61985;51.070;14.064;2023-02-24T05:23:57;22.52;;;9.07;;
73684;SDS011;61985;51.070;14.064;2023-02-24T05:26:30;24.17;;;9.10;;
73684;SDS011;61985;51.070;14.064;2023-02-24T05:28:58;25.77;;;9.07;;
73684;SDS011;61985;51.070;14.064;2023-02-24T05:31:26;21.02;;;9.15;;
73684;SDS011;61985;51.070;14.064;2023-02-24T05:33:54;20.77;;;9.15;;
73684;SDS011;61985;51.070;14.064;2023-02-24T05:36:26;22.33;;;9.05;;
73684;SDS011;61985;51.070;14.064;2023-02-24T05:38:54;21.70;;;8.38;;
73684;SDS011;61985;51.070;14.064;2023-02-24T05:41:26;21.58;;;8.18;;
73684;SDS011;61985;51.070;14.064;2023-02-24T05:44:00;24.73;;;9.32;;
73684;SDS011;61985;51.070;14.064;2023-02-24T05:46:29;22.55;;;8.18;;
73684;SDS011;61985;51.070;14.064;2023-02-24T05:49:06;21.45;;;7.93;;
73684;SDS011;61985;51.070;14.064;2023-02-24T05:51:36;20.67;;;6.65;;
73684;SDS011;61985;51.070;14.064;2023-02-24T05:56:33;18.50;;;7.25;;
73684;SDS011;61985;51.070;14.064;2023-02-24T05:59:00;20.65;;;6.93;;
73684;SDS011;61985;51.070;14.064;2023-02-24T06:01:29;24.48;;;8.55;;
73684;SDS011;61985;51.070;14.064;2023-02-24T06:03:59;38.95;;;16.13;;
73684;SDS011;61985;51.070;14.064;2023-02-24T06:06:33;24.63;;;10.27;;
73684;SDS011;61985;51.070;14.064;2023-02-24T06:09:08;11.07;;;5.25;;
73684;SDS011;61985;51.070;14.064;2023-02-24T06:11:37;10.73;;;4.53;;
73684;SDS011;61985;51.070;14.064;2023-02-24T06:14:04;7.65;;;2.97;;
73684;SDS011;61985;51.070;14.064;2023-02-24T06:16:34;7.85;;;2.55;;
73684;SDS011;61985;51.070;14.064;2023-02-24T06:19:19;6.35;;;2.55;;
73684;SDS011;61985;51.070;14.064;2023-02-24T06:21:44;8.45;;;2.58;;
73684;SDS011;61985;51.070;14.064;2023-02-24T09:45:59;9.43;;;1.70;;
73684;SDS011;61985;51.070;14.064;2023-02-24T09:48:39;4.90;;;1.48;;
73684;SDS011;61985;51.070;14.064;2023-02-24T09:51:31;6.97;;;1.70;;
73684;SDS011;61985;51.070;14.064;2023-02-24T09:54:15;9.00;;;1.50;;
73684;SDS011;61985;51.070;14.064;2023-02-24T09:56:46;12.25;;;1.98;;
73684;SDS011;61985;51.070;14.064;2023-02-24T10:02:56;10.23;;;1.63;;
73684;SDS011;61985;51.070;14.064;2023-02-24T10:08:15;8.25;;;2.08;;
73684;SDS011;61985;51.070;14.064;2023-02-24T10:10:55;7.95;;;2.30;;
73684;SDS011;61985;51.070;14.064;2023-02-24T10:13:52;8.93;;;2.05;;
73684;SDS011;61985;51.070;14.064;2023-02-24T10:16:22;10.88;;;3.30;;
73684;SDS011;61985;51.070;14.064;2023-02-24T10:18:49;9.40;;;2.80;;
73684;SDS011;61985;51.070;14.064;2023-02-24T10:24:06;11.25;;;2.53;;
73684;SDS011;61985;51.070;14.064;2023-02-24T10:26:42;12.60;;;2.90;;
73684;SDS011;61985;51.070;14.064;2023-02-24T10:35:01;12.85;;;2.80;;
73684;SDS011;61985;51.070;14.064;2023-02-24T10:37:26;9.35;;;3.20;;
73684;SDS011;61985;51.070;14.064;2023-02-24T10:39:58;10.10;;;2.65;;
73684;SDS011;61985;51.070;14.064;2023-02-24T10:42:37;15.48;;;3.70;;
73684;SDS011;61985;51.070;14.064;2023-02-24T10:47:37;6.82;;;2.88;;
73684;SDS011;61985;51.070;14.064;2023-02-24T10:50:31;10.02;;;3.17;;
73684;SDS011;61985;51.070;14.064;2023-02-24T10:53:02;11.85;;;3.40;;
73684;SDS011;61985;51.070;14.064;2023-02-24T10:55:40;14.02;;;3.60;;
73684;SDS011;61985;51.070;14.064;2023-02-24T10:58:16;9.23;;;3.10;;
73684;SDS011;61985;51.070;14.064;2023-02-24T11:00:56;8.93;;;3.00;;
73684;SDS011;61985;51.070;14.064;2023-02-24T11:03:31;14.35;;;5.63;;
73684;SDS011;61985;51.070;14.064;2023-02-24T11:06:24;12.07;;;3.75;;
73684;SDS011;61985;51.070;14.064;2023-02-24T11:09:17;11.57;;;4.63;;
73684;SDS011;61985;51.070;14.064;2023-02-24T11:11:55;11.00;;;4.05;;
73684;SDS011;61985;51.070;14.064;2023-02-24T11:14:56;12.95;;;3.00;;
73684;SDS011;61985;51.070;14.064;2023-02-24T11:17:45;13.13;;;4.30;;
73684;SDS011;61985;51.070;14.064;2023-02-24T11:20:26;15.77;;;4.63;;
73684;SDS011;61985;51.070;14.064;2023-02-24T11:22:54;14.10;;;5.38;;
73684;SDS011;61985;51.070;14.064;2023-02-24T11:27:45;16.02;;;5.18;;
73684;SDS011;61985;51.070;14.064;2023-02-24T11:36:02;18.70;;;6.10;;
73684;SDS011;61985;51.070;14.064;2023-02-24T11:41:22;11.40;;;4.35;;
73684;SDS011;61985;51.070;14.064;2023-02-24T11:44:09;14.73;;;5.85;;
73684;SDS011;61985;51.070;14.064;2023-02-24T11:46:44;11.90;;;3.67;;
73684;SDS011;61985;51.070;14.064;2023-02-24T11:49:24;13.50;;;4.82;;
73684;SDS011;61985;51.070;14.064;2023-02-24T11:51:54;11.82;;;4.25;;
73684;SDS011;61985;51.070;14.064;2023-02-24T11:54:25;15.75;;;5.25;;
73684;SDS011;61985;51.070;14.064;2023-02-24T11:59:39;12.43;;;4.50;;
73684;SDS011;61985;51.070;14.064;2023-02-24T12:05:12;13.55;;;5.25;;
73684;SDS011;61985;51.070;14.064;2023-02-24T12:07:44;9.63;;;4.75;;
73684;SDS011;61985;51.070;14.064;2023-02-24T12:10:18;13.45;;;5.50;;
73684;SDS011;61985;51.070;14.064;2023-02-24T12:35:03;9.15;;;4.40;;
73684;SDS011;61985;51.070;14.064;2023-02-24T12:37:39;9.60;;;4.28;;
73684;SDS011;61985;51.070;14.064;2023-02-24T12:45:45;12.55;;;4.18;;
73684;SDS011;61985;51.070;14.064;2023-02-24T12:51:14;9.73;;;4.25;;
73684;SDS011;61985;51.070;14.064;2023-02-24T12:54:05;8.27;;;4.07;;
73684;SDS011;61985;51.070;14.064;2023-02-24T12:59:40;12.43;;;5.53;;
73684;SDS011;61985;51.070;14.064;2023-02-24T13:05:05;52.17;;;21.95;;
73684;SDS011;61985;51.070;14.064;2023-02-24T13:07:44;42.30;;;16.73;;
73684;SDS011;61985;51.070;14.064;2023-02-24T13:10:19;18.77;;;7.72;;
73684;SDS011;61985;51.070;14.064;2023-02-24T13:12:47;12.23;;;6.05;;
73684;SDS011;61985;51.070;14.064;2023-02-24T13:15:22;10.10;;;4.00;;
73684;SDS011;61985;51.070;14.064;2023-02-24T13:17:49;11.45;;;6.57;;
73684;SDS011;61985;51.070;14.064;2023-02-24T13:22:54;11.68;;;5.22;;
73684;SDS011;61985;51.070;14.064;2023-02-24T13:25:20;11.30;;;4.78;;
73684;SDS011;61985;51.070;14.064;2023-02-24T13:27:57;11.35;;;5.22;;
73684;SDS011;61985;51.070;14.064;2023-02-24T13:33:21;13.15;;;4.35;;
73684;SDS011;61985;51.070;14.064;2023-02-24T13:36:03;9.95;;;4.15;;
73684;SDS011;61985;51.070;14.064;2023-02-24T13:38:34;14.05;;;4.60;;
73684;SDS011;61985;51.070;14.064;2023-02-24T13:41:23;11.25;;;4.53;;
73684;SDS011;61985;51.070;14.064;2023-02-24T13:44:02;10.02;;;4.20;;
73684;SDS011;61985;51.070;14.064;2023-02-24T13:46:52;9.50;;;3.88;;
73684;SDS011;61985;51.070;14.064;2023-02-24T13:55:26;15.40;;;4.97;;
73684;SDS011;61985;51.070;14.064;2023-02-24T14:00:47;9.55;;;4.25;;
73684;SDS011;61985;51.070;14.064;2023-02-24T14:03:26;11.23;;;4.90;;
73684;SDS011;61985;51.070;14.064;2023-02-24T14:05:53;14.48;;;4.70;;
73684;SDS011;61985;51.070;14.064;2023-02-24T14:08:20;13.45;;;4.40;;
73684;SDS011;61985;51.070;14.064;2023-02-24T14:10:51;13.95;;;5.13;;
73684;SDS011;61985;51.070;14.064;2023-02-24T14:13:24;10.93;;;4.55;;
73684;SDS011;61985;51.070;14.064;2023-02-24T14:15:54;11.20;;;4.82;;
73684;SDS011;61985;51.070;14.064;2023-02-24T14:18:23;14.60;;;5.05;;
73684;SDS011;61985;51.070;14.064;2023-02-24T14:20:50;13.98;;;5.15;;
73684;SDS011;61985;51.070;14.064;2023-02-24T14:26:07;11.10;;;4.97;;
73684;SDS011;61985;51.070;14.064;2023-02-24T14:28:38;14.32;;;5.40;;
73684;SDS011;61985;51.070;14.064;2023-02-24T14:31:10;13.20;;;5.32;;
73684;SDS011;61985;51.070;14.064;2023-02-24T14:33:39;11.18;;;5.07;;
73684;SDS011;61985;51.070;14.064;2023-02-24T14:36:12;15.25;;;5.63;;
73684;SDS011;61985;51.070;14.064;2023-02-24T14:38:40;12.90;;;5.18;;
73684;SDS011;61985;51.070;14.064;2023-02-24T14:41:18;11.18;;;5.07;;
73684;SDS011;61985;51.070;14.064;2023-02-24T14:43:46;14.52;;;4.97;;
73684;SDS011;61985;51.070;14.064;2023-02-24T14:46:12;197.55;;;76.18;;
73684;SDS011;61985;51.070;14.064;2023-02-24T14:48:37;114.18;;;33.00;;
73684;SDS011;61985;51.070;14.064;2023-02-24T14:53:33;14.13;;;6.25;;
73684;SDS011;61985;51.070;14.064;2023-02-24T14:56:02;17.33;;;9.52;;
73684;SDS011;61985;51.070;14.064;2023-02-24T14:58:46;18.23;;;10.13;;
73684;SDS011;61985;51.070;14.064;2023-02-24T15:03:59;14.35;;;6.28;;
73684;SDS011;61985;51.070;14.064;2023-02-24T15:09:11;16.65;;;8.13;;
73684;SDS011;61985;51.070;14.064;2023-02-24T15:11:46;18.10;;;9.50;;
73684;SDS011;61985;51.070;14.064;2023-02-24T15:14:18;19.40;;;10.10;;
73684;SDS011;61985;51.070;14.064;2023-02-24T15:19:26;16.23;;;8.63;;
73684;SDS011;61985;51.070;14.064;2023-02-24T15:21:55;13.98;;;6.57;;
73684;SDS011;61985;51.070;14.064;2023-02-24T15:24:33;14.70;;;6.03;;
73684;SDS011;61985;51.070;14.064;2023-02-24T15:27:18;17.58;;;7.03;;
73684;SDS011;61985;51.070;14.064;2023-02-24T15:29:56;19.15;;;9.10;;
73684;SDS011;61985;51.070;14.064;2023-02-24T15:32:25;22.65;;;10.95;;
73684;SDS011;61985;51.070;14.064;2023-02-24T15:34:52;19.15;;;7.55;;
73684;SDS011;61985;51.070;14.064;2023-02-24T15:37:22;18.65;;;6.47;;
73684;SDS011;61985;51.070;14.064;2023-02-24T15:39:50;20.33;;;7.72;;
73684;SDS011;61985;51.070;14.064;2023-02-24T15:42:20;14.45;;;6.20;;
73684;SDS011;61985;51.070;14.064;2023-02-24T15:44:56;12.85;;;6.47;;
73684;SDS011;61985;51.070;14.064;2023-02-24T15:47:38;14.85;;;6.28;;
73684;SDS011;61985;51.070;14.064;2023-02-24T15:50:09;16.05;;;6.20;;
73684;SDS011;61985;51.070;14.064;2023-02-24T15:52:36;16.83;;;6.57;;
73684;SDS011;61985;51.070;14.064;2023-02-24T15:55:02;104.55;;;34.88;;
73684;SDS011;61985;51.070;14.064;2023-02-24T15:57:29;47.33;;;20.27;;
73684;SDS011;61985;51.070;14.064;2023-02-24T15:59:56;45.47;;;19.08;;
73684;SDS011;61985;51.070;14.064;2023-02-24T16:02:21;20.50;;;9.00;;
73684;SDS011;61985;51.070;14.064;2023-02-24T16:04:48;57.70;;;26.75;;
73684;SDS011;61985;51.070;14.064;2023-02-24T16:07:23;15.18;;;6.82;;
73684;SDS011;61985;51.070;14.064;2023-02-24T16:09:53;15.65;;;6.00;;
73684;SDS011;61985;51.070;14.064;2023-02-24T16:12:21;15.32;;;5.85;;
73684;SDS011;61985;51.070;14.064;2023-02-24T16:14:49;12.23;;;5.20;;
73684;SDS011;61985;51.070;14.064;2023-02-24T16:19:53;11.57;;;6.22;;
73684;SDS011;61985;51.070;14.064;2023-02-24T16:22:20;15.75;;;6.45;;
73684;SDS011;61985;51.070;14.064;2023-02-24T16:24:46;12.50;;;4.82;;
73684;SDS011;61985;51.070;14.064;2023-02-24T16:27:14;9.63;;;4.22;;
73684;SDS011;61985;51.070;14.064;2023-02-24T16:29:41;15.00;;;4.82;;
73684;SDS011;61985;51.070;14.064;2023-02-24T16:32:08;10.73;;;4.20;;
73684;SDS011;61985;51.070;14.064;2023-02-24T16:34:35;13.68;;;4.93;;
73684;SDS011;61985;51.070;14.064;2023-02-24T16:37:00;12.57;;;5.38;;
73684;SDS011;61985;51.070;14.064;2023-02-24T16:39:25;11.60;;;4.07;;
73684;SDS011;61985;51.070;14.064;2023-02-24T16:41:51;10.23;;;3.90;;
73684;SDS011;61985;51.070;14.064;2023-02-24T16:44:16;9.43;;;3.42;;
73684;SDS011;61985;51.070;14.064;2023-02-24T16:46:42;10.82;;;4.15;;
73684;SDS011;61985;51.070;14.064;2023-02-24T16:49:08;7.55;;;3.20;;
73684;SDS011;61985;51.070;14.064;2023-02-24T16:51:37;11.95;;;4.22;;
73684;SDS011;61985;51.070;14.064;2023-02-24T16:54:04;11.05;;;3.83;;
73684;SDS011;61985;51.070;14.064;2023-02-24T16:56:30;12.80;;;4.90;;
73684;SDS011;61985;51.070;14.064;2023-02-24T16:58:55;10.15;;;4.07;;
73684;SDS011;61985;51.070;14.064;2023-02-24T17:01:20;9.95;;;4.53;;
73684;SDS011;61985;51.070;14.064;2023-02-24T17:03:50;12.73;;;4.82;;
73684;SDS011;61985;51.070;14.064;2023-02-24T17:06:17;12.70;;;5.47;;
73684;SDS011;61985;51.070;14.064;2023-02-24T17:08:43;8.00;;;3.80;;
73684;SDS011;61985;51.070;14.064;2023-02-24T17:11:11;12.93;;;4.70;;
73684;SDS011;61985;51.070;14.064;2023-02-24T17:13:38;11.13;;;4.03;;
73684;SDS011;61985;51.070;14.064;2023-02-24T17:16:04;10.02;;;5.18;;
73684;SDS011;61985;51.070;14.064;2023-02-24T17:18:29;9.93;;;4.40;;
73684;SDS011;61985;51.070;14.064;2023-02-24T17:20:55;14.25;;;4.45;;
73684;SDS011;61985;51.070;14.064;2023-02-24T17:25:55;12.45;;;4.72;;
73684;SDS011;61985;51.070;14.064;2023-02-24T17:28:24;12.48;;;4.38;;
73684;SDS011;61985;51.070;14.064;2023-02-24T17:30:50;14.50;;;4.90;;
73684;SDS011;61985;51.070;14.064;2023-02-24T17:33:15;13.15;;;4.65;;
73684;SDS011;61985;51.070;14.064;2023-02-24T17:35:41;14.30;;;6.28;;
73684;SDS011;61985;51.070;14.064;2023-02-24T17:38:10;11.93;;;5.45;;
73684;SDS011;61985;51.070;14.064;2023-02-24T17:40:37;13.73;;;5.10;;
73684;SDS011;61985;51.070;14.064;2023-02-24T17:43:03;13.88;;;5.10;;
73684;SDS011;61985;51.070;14.064;2023-02-24T17:45:28;11.20;;;4.88;;
73684;SDS011;61985;51.070;14.064;2023-02-24T17:47:54;12.52;;;5.65;;
73684;SDS011;61985;51.070;14.064;2023-02-24T17:50:19;11.65;;;5.25;;
73684;SDS011;61985;51.070;14.064;2023-02-24T17:52:44;11.00;;;4.80;;
73684;SDS011;61985;51.070;14.064;2023-02-24T17:55:10;12.90;;;5.60;;
73684;SDS011;61985;51.070;14.064;2023-02-24T17:57:35;11.30;;;5.13;;
73684;SDS011;61985;51.070;14.064;2023-02-24T18:00:01;10.38;;;4.57;;
73684;SDS011;61985;51.070;14.064;2023-02-24T18:02:28;12.35;;;5.07;;
73684;SDS011;61985;51.070;14.064;2023-02-24T18:04:53;12.63;;;6.05;;
73684;SDS011;61985;51.070;14.064;2023-02-24T18:07:19;8.73;;;4.60;;
73684;SDS011;61985;51.070;14.064;2023-02-24T18:09:45;11.60;;;4.60;;
73684;SDS011;61985;51.070;14.064;2023-02-24T18:12:10;10.75;;;5.78;;
73684;SDS011;61985;51.070;14.064;2023-02-24T18:14:35;13.32;;;5.32;;
73684;SDS011;61985;51.070;14.064;2023-02-24T18:17:01;11.25;;;5.88;;
73684;SDS011;61985;51.070;14.064;2023-02-24T18:19:26;14.30;;;5.35;;
73684;SDS011;61985;51.070;14.064;2023-02-24T18:21:51;11.40;;;4.90;;
73684;SDS011;61985;51.070;14.064;2023-02-24T18:24:17;12.88;;;6.22;;
73684;SDS011;61985;51.070;14.064;2023-02-24T18:26:42;12.75;;;5.18;;
73684;SDS011;61985;51.070;14.064;2023-02-24T18:29:07;9.68;;;4.43;;
73684;SDS011;61985;51.070;14.064;2023-02-24T18:31:33;11.80;;;5.28;;
73684;SDS011;61985;51.070;14.064;2023-02-24T18:33:58;9.88;;;4.60;;
73684;SDS011;61985;51.070;14.064;2023-02-24T18:36:24;12.98;;;6.25;;
73684;SDS011;61985;51.070;14.064;2023-02-24T18:38:51;9.93;;;4.30;;
73684;SDS011;61985;51.070;14.064;2023-02-24T18:41:18;8.93;;;4.43;;
73684;SDS011;61985;51.070;14.064;2023-02-24T18:43:49;8.32;;;4.05;;
73684;SDS011;61985;51.070;14.064;2023-02-24T18:46:19;9.05;;;4.10;;
73684;SDS011;61985;51.070;14.064;2023-02-24T18:48:45;7.60;;;3.63;;
73684;SDS011;61985;51.070;14.064;2023-02-24T18:51:16;6.53;;;3.50;;
73684;SDS011;61985;51.070;14.064;2023-02-24T18:53:44;9.05;;;3.60;;
73684;SDS011;61985;51.070;14.064;2023-02-24T18:56:10;7.63;;;3.20;;
73684;SDS011;61985;51.070;14.064;2023-02-24T18:58:44;4.85;;;2.80;;
73684;SDS011;61985;51.070;14.064;2023-02-24T19:01:14;5.15;;;3.22;;
73684;SDS011;61985;51.070;14.064;2023-02-24T19:03:42;7.57;;;3.97;;
73684;SDS011;61985;51.070;14.064;2023-02-24T19:06:08;8.77;;;3.92;;
73684;SDS011;61985;51.070;14.064;2023-02-24T19:08:34;7.53;;;3.15;;
73684;SDS011;61985;51.070;14.064;2023-02-24T19:11:05;6.32;;;3.15;;
73684;SDS011;61985;51.070;14.064;2023-02-24T19:13:32;5.78;;;3.28;;
73684;SDS011;61985;51.070;14.064;2023-02-24T19:15:58;7.45;;;3.13;;
73684;SDS011;61985;51.070;14.064;2023-02-24T19:18:24;8.93;;;3.92;;
73684;SDS011;61985;51.070;14.064;2023-02-24T19:20:49;7.00;;;3.17;;
73684;SDS011;61985;51.070;14.064;2023-02-24T19:23:14;5.25;;;2.78;;
73684;SDS011;61985;51.070;14.064;2023-02-24T19:25:40;5.38;;;2.65;;
73684;SDS011;61985;51.070;14.064;2023-02-24T19:28:05;5.88;;;3.10;;
73684;SDS011;61985;51.070;14.064;2023-02-24T19:30:30;5.70;;;3.20;;
73684;SDS011;61985;51.070;14.064;2023-02-24T19:32:56;4.32;;;2.47;;
73684;SDS011;61985;51.070;14.064;2023-02-24T19:35:21;6.05;;;2.88;;
73684;SDS011;61985;51.070;14.064;2023-02-24T19:37:47;5.65;;;3.20;;
73684;SDS011;61985;51.070;14.064;2023-02-24T19:40:13;4.45;;;2.60;;
73684;SDS011;61985;51.070;14.064;2023-02-24T19:42:38;5.88;;;2.58;;
73684;SDS011;61985;51.070;14.064;2023-02-24T19:45:04;4.80;;;2.83;;
73684;SDS011;61985;51.070;14.064;2023-02-24T19:47:30;5.10;;;2.92;;
73684;SDS011;61985;51.070;14.064;2023-02-24T19:49:55;4.35;;;2.50;;
73684;SDS011;61985;51.070;14.064;2023-02-24T19:52:21;4.80;;;2.47;;
73684;SDS011;61985;51.070;14.064;2023-02-24T19:54:46;4.57;;;2.50;;
73684;SDS011;61985;51.070;14.064;2023-02-24T19:57:11;6.50;;;2.55;;
73684;SDS011;61985;51.070;14.064;2023-02-24T19:59:37;4.07;;;2.20;;
73684;SDS011;61985;51.070;14.064;2023-02-24T20:02:03;5.72;;;2.60;;
73684;SDS011;61985;51.070;14.064;2023-02-24T20:04:29;5.00;;;2.22;;
73684;SDS011;61985;51.070;14.064;2023-02-24T20:06:54;5.45;;;2.75;;
73684;SDS011;61985;51.070;14.064;2023-02-24T20:09:20;4.43;;;2.50;;
73684;SDS011;61985;51.070;14.064;2023-02-24T20:11:46;5.60;;;2.25;;
73684;SDS011;61985;51.070;14.064;2023-02-24T20:14:13;3.70;;;2.00;;
73684;SDS011;61985;51.070;14.064;2023-02-24T20:16:40;4.43;;;2.33;;
73684;SDS011;61985;51.070;14.064;2023-02-24T20:19:07;4.88;;;2.08;;
73684;SDS011;61985;51.070;14.064;2023-02-24T20:21:33;5.65;;;2.75;;
73684;SDS011;61985;51.070;14.064;2023-02-24T20:24:02;5.35;;;2.75;;
73684;SDS011;61985;51.070;14.064;2023-02-24T20:26:29;3.70;;;2.05;;